Time;durP1;ratioP1;P1;durP2;ratioP2;P2;SDS_P1;SDS_P2;PMS_P1;PMS_P2;Temp;Humidity;BMP_temperature;BMP_pressure;BME280_temperature;BME280_humidity;BME280_pressure;Samples;Min_cycle;Max_cycle;Signal;HPM_P1;HPM_P2
2021/11/15 00:02:27;;;;;;;6.43;5.63;;;;;;;9.06;83.05;99887.06;2020929;80;20321;-80
2021/11/15 00:05:30;;;;;;;6.21;5.39;;;;;;;9.06;83.02;99884.50;2017196;80;20499;-80
2021/11/15 00:08:34;;;;;;;6.36;5.76;;;;;;;9.05;83.10;99878.44;2021882;80;21008;-80
2021/11/15 00:11:37;;;;;;;6.32;5.72;;;;;;;9.03;83.05;99869.78;2018981;80;20936;-80
2021/11/15 00:14:40;;;;;;;5.74;5.25;;;;;;;9.03;83.00;99876.69;2019292;80;20915;-80
2021/11/15 00:17:43;;;;;;;7.24;5.93;;;;;;;9.02;82.98;99873.22;2021975;80;21190;-80
2021/11/15 00:20:46;;;;;;;5.64;5.09;;;;;;;9.02;82.96;99865.47;2015416;80;20325;-80
2021/11/15 00:23:49;;;;;;;6.00;5.46;;;;;;;9.01;82.98;99876.69;2022077;80;20466;-80
2021/11/15 00:26:52;;;;;;;6.43;5.71;;;;;;;9.00;83.12;99874.94;2019311;80;20354;-78
2021/11/15 00:29:58;;;;;;;7.79;6.39;;;;;;;8.99;83.14;99874.94;2024331;80;20305;-79
2021/11/15 00:33:01;;;;;;;6.09;5.28;;;;;;;8.96;83.24;99878.34;2083174;69;28677;-80
2021/11/15 00:36:04;;;;;;;6.16;5.57;;;;;;;8.94;83.23;99882.63;2033408;79;20384;-79
2021/11/15 00:39:07;;;;;;;5.45;4.95;;;;;;;8.94;83.15;99882.63;2034111;79;20340;-79
2021/11/15 00:42:09;;;;;;;5.56;5.06;;;;;;;8.94;83.19;99884.34;2036790;79;20350;-80
2021/11/15 00:45:14;;;;;;;6.43;5.80;;;;;;;8.92;83.26;99881.75;2023039;80;20349;-80
2021/11/15 00:48:17;;;;;;;5.43;4.80;;;;;;;8.93;83.23;99890.38;2029439;79;20390;-80
2021/11/15 00:51:20;;;;;;;8.39;5.14;;;;;;;8.89;83.04;99880.88;2023545;80;20369;-79
2021/11/15 00:54:23;;;;;;;5.75;5.15;;;;;;;8.88;83.10;99881.72;2020387;80;20373;-80
2021/11/15 00:57:25;;;;;;;6.32;5.72;;;;;;;8.87;83.11;99879.97;2027821;80;20328;-80
2021/11/15 01:00:30;;;;;;;5.90;5.30;;;;;;;8.88;83.00;99879.13;2025539;77;30807;-80
2021/11/15 01:03:33;;;;;;;6.18;5.57;;;;;;;8.84;83.03;99875.66;2016337;80;20320;-80
2021/11/15 01:06:35;;;;;;;7.40;5.55;;;;;;;8.85;83.19;99886.88;2025403;80;20293;-80
2021/11/15 01:09:38;;;;;;;5.81;5.31;;;;;;;8.82;83.15;99879.94;2023211;80;20414;-80
2021/11/15 01:12:41;;;;;;;6.41;5.56;;;;;;;8.82;83.16;99890.31;2022226;80;20345;-80
2021/11/15 01:15:44;;;;;;;7.15;5.14;;;;;;;8.81;82.99;99890.28;2022398;80;20410;-79
2021/11/15 01:18:50;;;;;;;6.03;5.43;;;;;;;8.79;82.81;99890.25;2021815;80;20510;-80
2021/11/15 01:21:52;;;;;;;6.06;5.49;;;;;;;8.78;82.88;99898.84;2022298;80;20370;-80
2021/11/15 01:24:55;;;;;;;6.45;5.79;;;;;;;8.77;82.89;99897.13;2022507;80;20805;-79
2021/11/15 01:27:58;;;;;;;6.94;6.24;;;;;;;8.75;82.85;99894.53;2023447;80;20317;-80
2021/11/15 01:31:01;;;;;;;7.15;5.99;;;;;;;8.76;82.89;99903.16;2014948;78;31713;-79
2021/11/15 01:34:05;;;;;;;8.76;6.30;;;;;;;8.76;82.99;99908.34;2029727;79;20344;-80
2021/11/15 01:37:12;;;;;;;6.03;5.47;;;;;;;8.73;83.01;99904.00;2026277;79;20334;-80
2021/11/15 01:40:19;;;;;;;6.25;5.68;;;;;;;8.74;82.89;99907.47;2032307;79;20187;-80
2021/11/15 01:43:22;;;;;;;6.93;5.68;;;;;;;8.72;82.69;99914.34;2033454;79;20344;-80
2021/11/15 01:46:25;;;;;;;7.05;5.84;;;;;;;8.73;82.71;99909.19;2029557;77;24338;-79
2021/11/15 01:49:28;;;;;;;6.93;6.21;;;;;;;8.72;82.59;99907.44;2027705;80;20336;-80
2021/11/15 01:52:30;;;;;;;7.76;6.10;;;;;;;8.71;82.62;99907.44;2028155;80;20377;-80
2021/11/15 01:55:35;;;;;;;6.49;5.82;;;;;;;8.71;82.88;99912.59;2027487;80;20320;-80
2021/11/15 01:58:38;;;;;;;9.13;6.06;;;;;;;8.70;82.82;99913.44;2027790;80;20343;-79
2021/11/15 02:01:43;;;;;;;6.76;6.10;;;;;;;8.68;82.94;99920.34;2026487;80;20313;-80
2021/11/15 02:04:46;;;;;;;7.47;6.13;;;;;;;8.67;82.89;99908.25;2027569;80;20336;-80
2021/11/15 02:07:49;;;;;;;8.65;6.13;;;;;;;8.67;82.67;99910.84;2027021;80;20409;-80
2021/11/15 02:10:53;;;;;;;6.99;6.11;;;;;;;8.65;82.19;99900.47;2027926;80;20307;-80
2021/11/15 02:13:56;;;;;;;6.68;5.95;;;;;;;8.66;82.18;99902.19;2027704;80;20307;-80
2021/11/15 02:16:58;;;;;;;6.32;5.69;;;;;;;8.65;82.25;99908.22;2025696;77;25837;-79
2021/11/15 02:20:05;;;;;;;6.84;5.94;;;;;;;8.65;82.05;99907.38;2027629;80;20375;-80
2021/11/15 02:23:08;;;;;;;6.97;5.76;;;;;;;8.64;81.90;99897.88;2028100;80;20304;-80
2021/11/15 02:26:14;;;;;;;7.00;5.90;;;;;;;8.66;81.79;99898.75;2027901;80;20365;-79
2021/11/15 02:29:17;;;;;;;7.25;6.54;;;;;;;8.64;81.70;99893.56;2027515;80;20319;-80
2021/11/15 02:32:20;;;;;;;7.63;6.51;;;;;;;8.63;81.47;99893.53;2027427;79;20327;-80
2021/11/15 02:35:24;;;;;;;9.88;8.09;;;;;;;8.63;81.43;99896.13;2030661;79;20336;-80
2021/11/15 02:38:27;;;;;;;7.32;6.57;;;;;;;8.63;81.62;99893.53;2028984;80;20327;-80
2021/11/15 02:41:30;;;;;;;8.84;7.64;;;;;;;8.63;81.38;99909.06;2027579;80;20786;-80
2021/11/15 02:44:33;;;;;;;8.25;6.88;;;;;;;8.61;81.41;99903.84;2024514;80;20375;-80
2021/11/15 02:47:37;;;;;;;15.82;9.13;;;;;;;8.60;81.16;99907.28;2026326;77;91550;-80
2021/11/15 02:50:40;;;;;;;11.49;8.76;;;;;;;8.58;80.92;99896.06;2028158;79;20312;-80
2021/11/15 02:53:43;;;;;;;10.38;7.65;;;;;;;8.59;81.06;99902.09;2021544;80;20348;-80
2021/11/15 02:56:45;;;;;;;9.81;7.78;;;;;;;8.59;81.08;99897.78;2028459;80;20396;-80
2021/11/15 02:59:48;;;;;;;12.07;8.54;;;;;;;8.57;81.36;99901.22;2027629;80;20869;-79
2021/11/15 03:02:51;;;;;;;13.63;9.76;;;;;;;8.58;81.24;99901.22;2020395;77;34197;-80
2021/11/15 03:05:57;;;;;;;14.45;10.75;;;;;;;8.58;81.16;99897.78;2032797;79;20457;-78
2021/11/15 03:09:00;;;;;;;12.69;9.75;;;;;;;8.57;80.77;99894.31;2028745;80;20303;-79
2021/11/15 03:12:02;;;;;;;11.38;9.26;;;;;;;8.57;80.60;99894.31;2028652;80;20366;-80
2021/11/15 03:15:06;;;;;;;12.40;9.36;;;;;;;8.55;80.58;99892.56;2024180;80;20897;-80
2021/11/15 03:18:13;;;;;;;14.60;10.43;;;;;;;8.52;80.51;99897.72;2024371;77;24292;-79
2021/11/15 03:21:23;;;;;;;21.21;14.18;;;;;;;8.50;80.32;99892.53;2024324;80;20358;-80
2021/11/15 03:24:25;;;;;;;14.01;11.49;;;;;;;8.50;80.52;99889.94;2024088;80;20305;-80
2021/11/15 03:27:33;;;;;;;15.13;11.07;;;;;;;8.51;80.40;99888.22;2024459;80;20347;-80
2021/11/15 03:30:36;;;;;;;11.00;9.60;;;;;;;8.50;80.40;99892.53;2023156;76;27073;-79
2021/11/15 03:33:41;;;;;;;8.86;7.96;;;;;;;8.45;80.46;99887.28;2033770;79;20831;-79
2021/11/15 03:36:45;;;;;;;10.74;8.98;;;;;;;8.44;80.35;99882.09;2034749;79;20456;-80
2021/11/15 03:39:47;;;;;;;11.10;9.50;;;;;;;8.44;80.38;99877.81;2033122;79;20319;-79
2021/11/15 03:42:55;;;;;;;11.26;8.84;;;;;;;8.43;80.48;99882.91;2033706;79;20400;-80
2021/11/15 03:45:58;;;;;;;10.95;8.23;;;;;;;8.42;80.59;99878.59;2031907;77;29564;-80
2021/11/15 03:49:01;;;;;;;9.71;8.61;;;;;;;8.43;80.68;99888.97;2028487;80;20312;-80
2021/11/15 03:52:04;;;;;;;10.96;8.71;;;;;;;8.42;80.56;99886.38;2028191;80;20785;-80
2021/11/15 03:55:09;;;;;;;10.98;9.75;;;;;;;8.43;80.60;99880.34;2027204;80;20349;-80
2021/11/15 03:58:12;;;;;;;11.40;9.14;;;;;;;8.42;80.43;99887.22;2027420;80;20395;-79
2021/11/15 04:01:15;;;;;;;11.13;9.06;;;;;;;8.40;80.44;99883.75;2026913;80;20373;-79
2021/11/15 04:04:19;;;;;;;13.81;9.31;;;;;;;8.42;80.38;99882.06;2026525;80;20352;-79
2021/11/15 04:07:31;;;;;;;12.60;9.81;;;;;;;8.43;80.52;99881.22;2027481;80;20893;-80
2021/11/15 04:10:40;;;;;;;11.86;9.88;;;;;;;8.41;80.40;99876.88;2020661;80;20380;-79
2021/11/15 04:13:43;;;;;;;10.13;8.43;;;;;;;8.43;80.50;99875.16;2030474;80;20315;-80
2021/11/15 04:16:45;;;;;;;12.60;9.11;;;;;;;8.44;80.48;99880.38;2027862;77;37287;-80
2021/11/15 04:19:51;;;;;;;10.99;8.59;;;;;;;8.44;80.44;99875.22;2032650;79;20380;-80
2021/11/15 04:22:54;;;;;;;9.66;8.30;;;;;;;8.43;80.48;99880.34;2031132;79;20592;-79
2021/11/15 04:25:57;;;;;;;10.05;8.64;;;;;;;8.41;80.55;99880.31;2032203;79;21051;-79
2021/11/15 04:29:01;;;;;;;8.74;7.15;;;;;;;8.41;80.82;99862.22;2032707;79;20356;-79
2021/11/15 04:32:06;;;;;;;8.57;7.72;;;;;;;8.42;80.73;99868.25;2030656;77;29210;-80
2021/11/15 04:35:11;;;;;;;10.30;7.04;;;;;;;8.41;80.76;99874.28;2035386;79;20372;-80
2021/11/15 04:38:14;;;;;;;8.27;7.10;;;;;;;8.40;80.64;99869.97;2032464;79;20706;-80
2021/11/15 04:41:17;;;;;;;8.36;7.56;;;;;;;8.38;80.25;99872.53;2031344;79;20796;-79
2021/11/15 04:44:20;;;;;;;10.35;7.25;;;;;;;8.36;80.29;99866.47;2032381;79;20327;-79
2021/11/15 04:47:23;;;;;;;9.30;7.94;;;;;;;8.36;80.42;99870.78;2031083;76;23548;-79
2021/11/15 04:50:26;;;;;;;9.75;7.51;;;;;;;8.36;80.40;99870.78;2031787;79;20822;-80
2021/11/15 04:53:28;;;;;;;8.32;7.11;;;;;;;8.34;80.49;99872.47;2031978;79;20335;-79
2021/11/15 04:56:31;;;;;;;9.99;7.91;;;;;;;8.35;80.42;99874.22;2027776;79;20410;-79
2021/11/15 04:59:34;;;;;;;12.16;7.81;;;;;;;8.35;80.24;99869.03;2031696;79;20322;-79
2021/11/15 05:02:37;;;;;;;9.25;7.50;;;;;;;8.31;80.10;99875.88;2025060;79;24646;-80
2021/11/15 05:05:41;;;;;;;9.29;7.40;;;;;;;8.30;80.16;99862.91;2026581;80;20508;-79
2021/11/15 05:08:45;;;;;;;9.25;7.84;;;;;;;8.30;80.15;99868.09;2027035;80;20369;-79
2021/11/15 05:11:48;;;;;;;12.71;8.25;;;;;;;8.29;80.08;99861.19;2019938;80;20444;-80
2021/11/15 05:14:51;;;;;;;11.15;7.94;;;;;;;8.28;79.96;99854.28;2026537;80;20320;-80
2021/11/15 05:17:56;;;;;;;8.30;7.41;;;;;;;8.28;80.07;99859.44;2029484;77;29137;-79
2021/11/15 05:20:59;;;;;;;9.05;7.34;;;;;;;8.27;80.21;99856.00;2031820;79;20314;-79
2021/11/15 05:24:01;;;;;;;10.38;7.59;;;;;;;8.26;80.15;99858.53;2031708;79;20331;-79
2021/11/15 05:27:04;;;;;;;9.65;6.81;;;;;;;8.26;80.16;99855.94;2031044;79;20334;-79
2021/11/15 05:30:10;;;;;;;10.81;8.15;;;;;;;8.23;79.92;99856.78;2030166;79;21045;-79
2021/11/15 05:33:13;;;;;;;11.05;8.73;;;;;;;8.22;80.01;99857.63;2027832;80;20324;-80
2021/11/15 05:36:16;;;;;;;8.35;7.53;;;;;;;8.19;79.92;99858.47;2027114;80;20401;-80
2021/11/15 05:39:19;;;;;;;10.01;8.57;;;;;;;8.18;79.85;99854.13;2022648;80;20343;-79
2021/11/15 05:42:22;;;;;;;13.05;9.90;;;;;;;8.16;80.00;99855.84;2025609;80;20421;-79
2021/11/15 05:45:26;;;;;;;13.38;10.32;;;;;;;8.15;80.45;99854.09;2024415;77;23160;-79
2021/11/15 05:48:28;;;;;;;14.70;9.80;;;;;;;8.18;80.53;99874.84;2026112;80;20321;-79
2021/11/15 05:51:31;;;;;;;12.82;8.71;;;;;;;8.22;80.63;99865.38;2025944;80;20325;-79
2021/11/15 05:54:34;;;;;;;9.38;7.79;;;;;;;8.24;80.50;99868.00;2027158;80;20452;-79
2021/11/15 05:57:37;;;;;;;10.66;8.24;;;;;;;8.21;80.13;99874.00;2026722;80;20300;-80
2021/11/15 06:00:40;;;;;;;10.06;7.78;;;;;;;8.19;79.93;99870.53;2025493;78;26926;-79
2021/11/15 06:03:45;;;;;;;9.80;7.64;;;;;;;8.19;80.13;99873.13;2027229;80;21561;-79
2021/11/15 06:06:49;;;;;;;7.81;7.01;;;;;;;8.16;80.01;99878.25;2023115;80;20384;-80
2021/11/15 06:09:52;;;;;;;8.60;7.04;;;;;;;8.16;79.96;99873.09;2026557;80;20424;-80
2021/11/15 06:12:55;;;;;;;9.50;7.03;;;;;;;8.14;80.03;99870.47;2026474;80;20316;-79
2021/11/15 06:15:57;;;;;;;9.05;6.61;;;;;;;8.15;80.05;99882.56;2025421;77;24894;-79
2021/11/15 06:19:00;;;;;;;10.25;7.04;;;;;;;8.13;79.93;99878.22;2026870;80;20438;-79
2021/11/15 06:22:03;;;;;;;8.25;6.89;;;;;;;8.14;79.93;99885.13;2025666;80;20331;-77
2021/11/15 06:25:07;;;;;;;8.49;6.50;;;;;;;8.14;79.99;99883.41;2025456;80;20426;-78
2021/11/15 06:28:10;;;;;;;8.29;7.29;;;;;;;8.14;79.95;99892.88;2025653;80;20349;-78
2021/11/15 06:31:14;;;;;;;7.91;6.72;;;;;;;8.14;79.96;99892.88;2025763;77;23178;-78
2021/11/15 06:34:17;;;;;;;9.35;7.16;;;;;;;8.14;79.81;99893.75;2030994;80;20343;-78
2021/11/15 06:37:19;;;;;;;8.73;6.82;;;;;;;8.13;79.86;99893.75;2031150;79;20315;-78
2021/11/15 06:40:22;;;;;;;10.13;7.69;;;;;;;8.14;79.82;99892.88;2030465;80;20819;-78
2021/11/15 06:43:25;;;;;;;12.10;7.76;;;;;;;8.13;79.84;99896.31;2032788;79;20391;-80
2021/11/15 06:46:28;;;;;;;12.01;7.24;;;;;;;8.13;79.92;99892.03;2030940;77;22390;-79
2021/11/15 06:49:31;;;;;;;9.48;7.14;;;;;;;8.16;80.03;99896.38;2032907;79;20445;-79
2021/11/15 06:52:36;;;;;;;9.89;7.88;;;;;;;8.15;79.93;99904.97;2032113;80;20695;-79
2021/11/15 06:55:38;;;;;;;8.73;7.20;;;;;;;8.14;79.82;99901.50;2031970;80;20371;-79
2021/11/15 06:58:41;;;;;;;8.93;6.70;;;;;;;8.16;79.91;99914.47;2032321;80;20311;-79
2021/11/15 07:01:44;;;;;;;8.96;7.75;;;;;;;8.12;79.66;99910.97;2029173;79;24050;-80
2021/11/15 07:04:48;;;;;;;9.11;7.60;;;;;;;8.12;79.54;99915.28;2027923;80;20361;-80
2021/11/15 07:07:54;;;;;;;9.71;7.43;;;;;;;8.12;79.68;99908.38;2028754;80;20338;-80
2021/11/15 07:11:11;;;;;;;9.13;7.14;;;;;;;8.14;79.70;99922.22;2028338;80;20359;-79
2021/11/15 07:14:14;;;;;;;9.11;7.25;;;;;;;8.14;79.86;99909.28;2025915;80;20163;-81
2021/11/15 07:17:24;;;;;;;10.25;8.11;;;;;;;8.17;79.65;99921.38;2019633;80;20380;-80
2021/11/15 07:20:31;;;;;;;9.41;7.03;;;;;;;8.15;79.56;99923.06;2029531;80;20804;-80
2021/11/15 07:23:34;;;;;;;9.00;7.21;;;;;;;8.13;79.28;99917.03;2028755;80;20354;-80
2021/11/15 07:26:40;;;;;;;8.57;6.90;;;;;;;8.15;79.42;99929.13;2029299;80;20336;-80
2021/11/15 07:29:46;;;;;;;8.07;6.75;;;;;;;8.16;79.52;99928.28;2029399;80;20816;-80
2021/11/15 07:32:52;;;;;;;8.76;7.16;;;;;;;8.17;79.90;99934.31;2028073;80;20357;-80
2021/11/15 07:35:55;;;;;;;9.26;7.65;;;;;;;8.18;79.91;99939.50;2021419;80;20328;-80
2021/11/15 07:38:58;;;;;;;13.40;9.50;;;;;;;8.19;79.95;99937.78;2025219;80;20485;-80
2021/11/15 07:42:02;;;;;;;11.63;8.43;;;;;;;8.22;79.87;99937.81;2023542;80;20997;-80
2021/11/15 07:45:06;;;;;;;11.27;8.34;;;;;;;8.21;79.85;99942.97;2012151;80;20335;-80
2021/11/15 07:48:10;;;;;;;11.30;7.93;;;;;;;8.22;79.91;99939.53;2027154;80;20383;-79
2021/11/15 07:51:14;;;;;;;15.31;9.45;;;;;;;8.22;79.94;99931.78;2028081;80;20805;-80
2021/11/15 07:54:16;;;;;;;17.90;10.44;;;;;;;8.23;79.90;99929.22;2027789;80;20324;-80
2021/11/15 07:57:19;;;;;;;12.65;9.18;;;;;;;8.22;79.92;99937.81;2027977;80;20324;-79
2021/11/15 08:00:24;;;;;;;11.23;8.76;;;;;;;8.22;79.94;99943.00;2027834;77;23971;-79
2021/11/15 08:03:27;;;;;;;10.73;8.05;;;;;;;8.23;79.92;99943.88;2026589;80;20328;-78
2021/11/15 08:06:30;;;;;;;9.21;7.07;;;;;;;8.23;79.71;99938.69;2026029;80;20862;-79
2021/11/15 08:09:32;;;;;;;8.23;6.66;;;;;;;8.23;79.41;99943.88;2024778;80;20872;-77
2021/11/15 08:12:41;;;;;;;10.05;8.13;;;;;;;8.23;79.50;99939.56;2025629;80;20365;-78
2021/11/15 08:15:44;;;;;;;;;;;;;;;8.23;79.65;99944.72;2023591;78;26989;-79
2021/11/15 08:18:47;;;;;;;11.82;7.60;;;;;;;8.25;79.64;99940.44;2025742;80;20143;-78
2021/11/15 08:21:50;;;;;;;11.99;8.20;;;;;;;8.26;79.92;99951.66;2023954;80;20420;-78
2021/11/15 08:24:52;;;;;;;10.49;7.74;;;;;;;8.26;79.83;99944.81;2026039;80;20384;-79
2021/11/15 08:27:57;;;;;;;11.73;7.78;;;;;;;8.25;79.58;99950.78;2026302;80;20366;-79
2021/11/15 08:31:03;;;;;;;10.50;7.64;;;;;;;8.25;79.55;99945.63;2023188;78;23372;-77
2021/11/15 08:34:07;;;;;;;10.21;7.46;;;;;;;8.28;79.48;99950.88;2026235;79;21380;-77
2021/11/15 08:37:11;;;;;;;9.56;6.84;;;;;;;8.29;79.59;99946.56;2029870;79;20371;-79
2021/11/15 08:40:14;;;;;;;9.39;7.01;;;;;;;8.29;79.41;99939.66;2030933;79;20326;-79
2021/11/15 08:43:24;;;;;;;9.27;7.43;;;;;;;8.29;79.11;99938.78;2032586;79;20315;-80
2021/11/15 08:46:29;;;;;;;9.81;8.00;;;;;;;8.32;79.40;99941.41;2030872;77;29084;-79
2021/11/15 08:49:35;;;;;;;13.43;7.94;;;;;;;8.32;79.45;99936.25;2031728;79;20174;-78
2021/11/15 08:52:38;;;;;;;9.13;7.54;;;;;;;8.32;79.32;99923.31;2031644;79;20178;-79
2021/11/15 08:55:41;;;;;;;9.70;7.11;;;;;;;8.33;79.29;99928.50;2031029;79;20326;-78
2021/11/15 08:58:45;;;;;;;8.46;6.71;;;;;;;8.36;79.17;99928.56;2030642;79;20413;-79
2021/11/15 09:01:49;;;;;;;8.70;6.61;;;;;;;8.37;78.92;99930.31;2027858;77;20905;-78
2021/11/15 09:04:52;;;;;;;9.13;7.96;;;;;;;8.36;78.75;99935.47;2026787;80;20610;-80
2021/11/15 09:07:55;;;;;;;10.56;7.53;;;;;;;8.36;78.48;99930.28;2028543;80;20316;-79
2021/11/15 09:10:58;;;;;;;9.86;7.57;;;;;;;8.36;78.68;99925.97;2027130;80;20384;-78
2021/11/15 09:14:00;;;;;;;8.77;5.91;;;;;;;8.39;78.72;99926.00;2025021;80;20327;-79
2021/11/15 09:17:05;;;;;;;8.10;6.10;;;;;;;8.41;78.54;99921.72;2029577;79;20347;-80
2021/11/15 09:20:09;;;;;;;8.74;6.95;;;;;;;8.45;78.42;99931.28;2032645;79;20319;-80
2021/11/15 09:23:13;;;;;;;9.81;6.94;;;;;;;8.46;78.54;99926.97;2033009;79;20332;-80
2021/11/15 09:26:18;;;;;;;8.41;6.85;;;;;;;8.47;78.41;99931.31;2033857;79;20379;-80
2021/11/15 09:29:22;;;;;;;7.14;5.97;;;;;;;8.50;78.45;99930.47;2033699;79;20376;-80
2021/11/15 09:32:25;;;;;;;8.99;5.95;;;;;;;8.50;77.88;99918.41;2028571;77;28614;-80
2021/11/15 09:35:28;;;;;;;8.04;6.41;;;;;;;8.46;77.47;99924.41;2027526;80;20365;-80
2021/11/15 09:38:32;;;;;;;6.74;6.04;;;;;;;8.51;77.98;99919.28;2027185;80;20308;-80
2021/11/15 09:41:37;;;;;;;8.35;5.99;;;;;;;8.52;77.97;99919.28;2028168;80;20333;-79
2021/11/15 09:44:41;;;;;;;8.30;6.24;;;;;;;8.56;78.02;99927.94;2028990;80;20400;-80
2021/11/15 09:47:45;;;;;;;8.15;6.46;;;;;;;8.56;77.77;99922.78;2026746;77;47884;-80
2021/11/15 09:50:49;;;;;;;7.80;6.24;;;;;;;8.59;77.66;99926.25;2028339;80;20817;-79
2021/11/15 09:53:59;;;;;;;8.59;6.80;;;;;;;8.62;77.47;99939.25;2026950;80;20373;-79
2021/11/15 09:57:03;;;;;;;8.34;6.58;;;;;;;8.63;77.33;99929.78;2027278;80;20327;-79
2021/11/15 10:00:09;;;;;;;7.63;5.94;;;;;;;8.63;77.19;99938.41;2025249;80;20217;-80
2021/11/15 10:03:12;;;;;;;9.68;6.46;;;;;;;8.64;77.05;99941.88;2031945;77;30684;-79
2021/11/15 10:06:15;;;;;;;9.70;7.15;;;;;;;8.65;77.27;99941.03;2032466;79;20323;-78
2021/11/15 10:09:29;;;;;;;9.69;6.94;;;;;;;8.66;77.52;99935.84;2032541;79;20295;-79
2021/11/15 10:12:33;;;;;;;8.20;6.49;;;;;;;8.67;77.13;99939.31;2032535;79;20307;-79
2021/11/15 10:15:45;;;;;;;8.80;6.70;;;;;;;8.69;77.13;99937.59;2035609;79;20996;-79
2021/11/15 10:19:06;;;;;;;8.38;6.55;;;;;;;8.70;77.30;99929.84;2030967;79;20322;-79
2021/11/15 10:22:09;;;;;;;9.83;6.84;;;;;;;8.67;76.98;99934.13;2031963;79;20328;-79
2021/11/15 10:25:14;;;;;;;8.29;6.75;;;;;;;8.68;77.17;99933.28;2031664;80;20220;-79
2021/11/15 10:28:22;;;;;;;10.00;7.17;;;;;;;8.66;77.05;99927.22;2024853;79;20307;-79
2021/11/15 10:31:39;;;;;;;8.43;6.25;;;;;;;8.68;77.12;99926.38;2017733;80;20230;-79
2021/11/15 10:34:47;;;;;;;9.80;6.64;;;;;;;8.63;76.67;99927.19;2023031;80;20458;-79
2021/11/15 10:37:51;;;;;;;8.49;6.19;;;;;;;8.66;77.03;99917.72;2022637;80;20224;-79
2021/11/15 10:41:14;;;;;;;6.56;5.76;;;;;;;8.68;77.07;99910.84;2019102;80;21003;-79
2021/11/15 10:44:19;;;;;;;8.89;6.44;;;;;;;8.67;76.93;99906.53;2021975;80;20406;-79
2021/11/15 10:47:49;;;;;;;9.56;6.68;;;;;;;8.70;77.02;99916.03;2014398;80;20364;-79
2021/11/15 10:50:56;;;;;;;10.09;7.82;;;;;;;8.71;76.92;99920.38;2006871;80;21063;-80
2021/11/15 10:54:02;;;;;;;9.54;7.35;;;;;;;8.72;77.20;99922.09;2023451;80;20655;-80
2021/11/15 10:57:32;;;;;;;10.71;7.64;;;;;;;8.72;77.26;99919.50;2020364;80;20385;-79
2021/11/15 11:00:40;;;;;;;10.45;8.00;;;;;;;8.70;77.54;99916.91;2015512;77;25452;-79
2021/11/15 11:03:47;;;;;;;9.64;7.03;;;;;;;8.71;77.39;99908.28;2024796;80;20354;-79
2021/11/15 11:07:02;;;;;;;9.27;6.44;;;;;;;8.69;76.98;99902.22;2026842;80;20372;-79
2021/11/15 11:10:08;;;;;;;12.05;7.47;;;;;;;8.68;77.20;99910.84;2021077;80;20345;-79
2021/11/15 11:13:14;;;;;;;9.56;7.20;;;;;;;8.64;77.10;99911.69;2019747;80;20361;-79
2021/11/15 11:16:17;;;;;;;11.04;7.10;;;;;;;8.62;76.96;99891.81;2021877;80;20319;-79
2021/11/15 11:19:34;;;;;;;8.19;6.38;;;;;;;8.63;77.15;99893.53;2023241;80;20490;-79
2021/11/15 11:25:50;;;;;;;12.41;8.85;;;;;;;8.56;76.64;99889.13;2025679;80;20823;-79
2021/11/15 11:28:58;;;;;;;25.52;16.10;;;;;;;8.55;77.17;99884.81;2024828;80;20343;-79
2021/11/15 11:32:06;;;;;;;26.20;17.31;;;;;;;8.59;77.43;99894.34;2023329;77;28648;-79
2021/11/15 11:35:09;;;;;;;18.03;11.70;;;;;;;8.60;77.50;99889.16;2018852;80;20389;-79
2021/11/15 11:38:13;;;;;;;16.00;10.64;;;;;;;8.60;77.34;99898.66;2024225;80;20654;-79
2021/11/15 11:41:19;;;;;;;12.73;8.59;;;;;;;8.61;77.22;99902.97;2010379;80;20784;-79
2021/11/15 11:44:22;;;;;;;14.05;9.32;;;;;;;8.58;77.04;99890.88;2021200;80;20390;-79
2021/11/15 11:47:29;;;;;;;12.20;9.16;;;;;;;8.58;77.47;99892.59;2011667;78;22353;-79
2021/11/15 11:50:34;;;;;;;10.19;7.85;;;;;;;8.60;77.68;99885.72;2009028;80;20391;-79
2021/11/15 11:53:37;;;;;;;8.68;6.88;;;;;;;8.59;77.62;99878.81;2020685;80;20849;-79
2021/11/15 11:56:56;;;;;;;8.85;7.49;;;;;;;8.59;77.46;99881.38;2020216;80;20386;-78
2021/11/15 12:00:06;;;;;;;9.68;7.94;;;;;;;8.59;77.42;99887.44;2016280;80;20405;-79
2021/11/15 12:03:14;;;;;;;8.95;6.47;;;;;;;8.61;77.67;99884.84;2013449;80;20297;-79
2021/11/15 12:06:29;;;;;;;8.19;6.22;;;;;;;8.61;77.65;99879.69;2020161;80;20349;-79
2021/11/15 12:09:46;;;;;;;8.38;7.26;;;;;;;8.60;77.69;99868.47;2021562;80;20904;-79
2021/11/15 12:12:55;;;;;;;8.55;6.90;;;;;;;8.59;77.73;99871.91;2017245;80;20330;-79
2021/11/15 12:16:19;;;;;;;10.69;6.94;;;;;;;8.59;77.93;99858.97;2021744;80;20924;-79
2021/11/15 12:19:52;;;;;;;12.15;7.80;;;;;;;8.56;78.01;99871.88;2026163;80;21275;-78
2021/11/15 12:23:12;;;;;;;11.07;8.25;;;;;;;8.57;78.06;99868.44;2019631;80;20528;-79
2021/11/15 12:26:37;;;;;;;10.00;8.02;;;;;;;8.59;78.15;99868.44;2015576;80;20320;-79
2021/11/15 12:29:43;;;;;;;8.24;7.29;;;;;;;8.54;78.10;99876.16;2021341;80;20328;-79
2021/11/15 12:33:16;;;;;;;8.80;7.18;;;;;;;8.52;78.07;99864.94;2023206;80;20312;-79
2021/11/15 12:36:37;;;;;;;8.50;7.31;;;;;;;8.52;78.16;99875.28;2005970;80;20478;-79
2021/11/15 12:39:43;;;;;;;11.29;8.49;;;;;;;8.49;78.24;99870.06;1994775;81;20259;-79
2021/11/15 12:42:49;;;;;;;9.04;7.85;;;;;;;8.46;78.30;99870.91;1998055;81;21149;-79
2021/11/15 12:46:15;;;;;;;9.70;7.61;;;;;;;8.45;78.47;99857.97;1997817;81;20394;-80
2021/11/15 12:49:25;;;;;;;10.29;6.90;;;;;;;8.42;78.60;99855.31;2002832;81;20441;-78
2021/11/15 12:52:31;;;;;;;7.29;6.44;;;;;;;8.42;78.70;99858.78;2004764;81;20350;-78
2021/11/15 12:55:48;;;;;;;10.82;7.26;;;;;;;8.43;78.69;99859.63;2003734;81;20361;-78
2021/11/15 12:58:52;;;;;;;9.86;7.65;;;;;;;8.41;78.71;99862.22;2002380;81;20161;-78
2021/11/15 13:01:55;;;;;;;9.35;7.43;;;;;;;8.38;78.70;99856.13;1995200;78;32971;-76
2021/11/15 13:05:03;;;;;;;8.07;6.88;;;;;;;8.37;78.87;99855.25;1994556;81;20354;-75
2021/11/15 13:08:08;;;;;;;11.93;8.65;;;;;;;8.37;78.88;99846.63;1995472;81;20329;-75
2021/11/15 13:11:12;;;;;;;11.93;8.71;;;;;;;8.36;78.93;99848.34;1994940;81;20309;-74
2021/11/15 13:14:15;;;;;;;13.63;9.36;;;;;;;8.38;79.06;99840.63;2015082;80;20317;-75
2021/11/15 13:17:20;;;;;;;16.77;10.39;;;;;;;8.39;78.93;99830.28;2017220;78;27830;-75
2021/11/15 13:20:24;;;;;;;14.77;9.55;;;;;;;8.39;78.79;99829.41;2021325;80;20312;-75
2021/11/15 13:23:30;;;;;;;10.77;8.13;;;;;;;8.36;78.88;99832.84;2020830;80;21387;-75
2021/11/15 13:26:35;;;;;;;60.31;26.33;;;;;;;8.34;78.82;99831.94;2017094;80;20316;-76
2021/11/15 13:29:38;;;;;;;26.25;15.05;;;;;;;8.34;78.92;99834.53;2021055;80;20344;-75
2021/11/15 13:32:47;;;;;;;16.39;11.09;;;;;;;8.34;78.90;99829.38;2019284;77;23304;-75
2021/11/15 13:35:50;;;;;;;15.71;10.93;;;;;;;8.33;79.01;99837.06;2022708;79;20326;-75
2021/11/15 13:38:53;;;;;;;17.42;11.19;;;;;;;8.33;78.86;99827.59;2026577;79;20178;-75
2021/11/15 13:42:02;;;;;;;17.25;11.32;;;;;;;8.34;79.00;99831.09;2026216;79;20307;-76
2021/11/15 13:45:05;;;;;;;14.13;8.89;;;;;;;8.35;79.09;99825.06;2025217;79;20395;-75
2021/11/15 13:48:10;;;;;;;9.44;8.35;;;;;;;8.33;79.12;99819.84;2025270;77;21221;-75
2021/11/15 13:51:13;;;;;;;11.99;9.24;;;;;;;8.32;79.16;99825.00;2025207;79;20825;-75
2021/11/15 13:54:16;;;;;;;12.94;9.40;;;;;;;8.32;79.15;99815.50;2026351;79;20335;-76
2021/11/15 13:57:24;;;;;;;11.41;8.73;;;;;;;8.30;79.09;99821.53;2026260;79;20371;-76
2021/11/15 14:00:29;;;;;;;11.01;8.59;;;;;;;8.29;79.14;99809.44;2023950;77;22455;-75
2021/11/15 14:03:36;;;;;;;11.09;8.27;;;;;;;8.28;79.31;99807.72;2025945;79;20417;-76
2021/11/15 14:06:41;;;;;;;12.61;9.65;;;;;;;8.27;79.47;99814.59;2026636;79;20421;-75
2021/11/15 14:09:44;;;;;;;12.01;9.23;;;;;;;8.28;79.63;99818.06;2028617;79;20437;-76
2021/11/15 14:12:49;;;;;;;16.54;10.46;;;;;;;8.28;79.67;99813.75;2026607;79;20718;-75
2021/11/15 14:15:52;;;;;;;20.89;13.40;;;;;;;8.27;79.73;99819.78;2025329;77;23622;-76
2021/11/15 14:18:55;;;;;;;22.74;13.16;;;;;;;8.27;79.86;99822.34;2026894;79;20354;-76
2021/11/15 14:21:58;;;;;;;17.19;11.73;;;;;;;8.27;79.84;99822.34;2026737;79;21589;-75
2021/11/15 14:25:01;;;;;;;15.89;10.38;;;;;;;8.27;79.94;99816.31;2026479;80;20457;-75
2021/11/15 14:28:05;;;;;;;16.71;11.24;;;;;;;8.27;79.98;99824.09;2025925;80;20387;-75
2021/11/15 14:31:10;;;;;;;15.44;10.00;;;;;;;8.26;80.09;99820.63;2024516;77;23138;-74
2021/11/15 14:34:13;;;;;;;12.13;8.63;;;;;;;8.25;80.33;99823.16;2024762;80;20378;-77
2021/11/15 14:37:20;;;;;;;18.49;12.29;;;;;;;8.25;80.31;99825.75;2026665;80;20336;-75
2021/11/15 14:40:24;;;;;;;10.65;8.19;;;;;;;8.24;80.31;99819.72;2025565;80;20355;-75